Latest Coastal Weather Observations for Walpole North

IDW60701

Issued at 12:42 pm WST Saturday 13 February 2016 (issued every 10 minutes, with the page automatically refreshed every 10 minutes)

About coastal observations | Map of coastal stations | Coastal observations for WA | Marine services | Other Formats
Station Details ID: 009998 Name: NORTH WALPOLE Lat: -34.95 Lon: 116.72 Height: 73.0 m
Data from the previous 72 hours. | See also: Recent months at Walpole North
Date/Time
WST
Temp

°C
Wind Pressure Rain
since 9am
mm
Weather Cloud Vis
km
Sea
Height
m
Swell
Dir
 
Speed
knots
Gust
knots
hPa Trend Height
m
Period
s
Dir
13/12:30pm 18.6 S 7 14 1024.2 - 0.0 - - - - - - -
13/12:00pm 18.3 SSE 7 11 1024.4 - 0.0 - - - - - - -
13/11:30am 18.2 SSE 6 11 1024.5 - 0.0 - - - - - - -
13/11:00am 19.3 S 7 14 1024.7 - 0.0 - - - - - - -
13/10:30am 18.6 SSE 6 10 1024.7 - 0.0 - - - - - - -
13/10:00am 18.2 S 6 10 1024.8 - 0.0 - - - - - - -
13/09:30am 17.8 SSE 6 11 1024.7 - 0.0 - - - - - - -
13/09:00am 18.1 SSE 6 9 1024.6 - 0.0 - - - - - - -
13/08:30am 17.4 SSE 6 12 1024.4 - 0.0 - - - - - - -
13/08:00am 17.2 S 5 9 1024.2 - 0.0 - - - - - - -
13/07:30am 17.2 S 8 15 1024.0 - 0.0 - - - - - - -
13/07:00am 16.9 S 8 15 1023.6 - 0.0 - - - - - - -
13/06:30am 16.4 SSW 7 11 1023.3 - 0.0 - - - - - - -
13/06:00am 16.3 SSW 8 12 1023.0 - 0.0 - - - - - - -
13/05:30am 16.5 SSW 11 14 1022.4 - 0.0 - - - - - - -
13/05:00am 16.5 SW 6 10 1022.0 - 0.0 - - - - - - -
13/04:30am 16.5 SSW 7 13 1021.8 - 0.0 - - - - - - -
13/04:00am 16.4 SW 5 7 1021.4 - 0.0 - - - - - - -
13/03:30am 16.2 SSW 7 11 1021.4 - 0.0 - - - - - - -
13/03:00am 15.7 SSW 4 7 1021.3 - 0.0 - - - - - - -
13/02:30am 15.1 WSW 3 5 1021.1 - 0.0 - - - - - - -
13/02:00am 15.0 SW 4 7 1021.1 - 0.0 - - - - - - -
13/01:30am 14.5 SW 4 8 1021.1 - 0.0 - - - - - - -
13/01:00am 15.5 SW 5 7 1021.1 - 0.0 - - - - - - -
13/12:30am 16.2 SSW 5 8 1021.3 - 0.0 - - - - - - -
13/12:00am 16.7 SSW 7 11 1021.3 - 0.0 - - - - - - -
 
Date/Time
WST
Temp

°C
Wind Pressure Rain
since 9am
mm
Weather Cloud Vis
km
Sea
Height
m
Swell
Dir
 
Speed
knots
Gust
knots
hPa Trend Height
m
Period
s
Dir
12/11:30pm 16.9 SW 6 9 1021.3 - 0.0 - - - - - - -
12/11:00pm 17.2 SW 6 10 1021.3 - 0.0 - - - - - - -
12/10:30pm 17.4 SSW 6 13 1021.3 - 0.0 - - - - - - -
12/10:00pm 17.5 SSW 8 12 1021.3 - 0.0 - - - - - - -
12/09:30pm 17.7 SSW 8 12 1021.4 - 0.0 - - - - - - -
12/09:00pm 17.8 SSW 6 12 1021.1 - 0.0 - - - - - - -
12/08:30pm 17.6 SSW 7 12 1020.8 - 0.0 - - - - - - -
12/08:00pm 17.5 SSW 8 15 1020.5 - 0.0 - - - - - - -
12/07:30pm 18.0 SSW 6 13 1020.2 - 0.0 - - - - - - -
12/07:00pm 18.0 SW 5 10 1019.9 - 0.0 - - - - - - -
12/06:30pm 18.5 SSW 8 12 1019.7 - 0.0 - - - - - - -
12/06:00pm 19.3 SSW 9 16 1019.3 - 0.0 - - - - - - -
12/05:30pm 19.2 S 10 17 1019.0 - 0.0 - - - - - - -
12/05:00pm 19.1 SSW 11 16 1018.7 - 0.0 - - - - - - -
12/04:30pm 20.9 SSW 9 16 1018.4 - 0.0 - - - - - - -
12/04:00pm 21.4 SW 6 17 1018.2 - 0.0 - - - - - - -
12/03:30pm 23.0 SW 9 13 1017.9 - 0.0 - - - - - - -
12/03:00pm 21.9 SW 9 15 1018.0 - 0.0 - - - - - - -
12/02:30pm 23.4 SW 11 17 1017.9 - 0.0 - - - - - - -
12/02:00pm 23.1 SW 10 15 1017.9 - 0.0 - - - - - - -
12/01:30pm 23.8 W 9 13 1018.0 - 0.0 - - - - - - -
12/01:00pm 23.5 WSW 9 13 1018.4 - 0.0 - - - - - - -
12/12:30pm 23.3 WSW 9 15 1018.5 - 0.0 - - - - - - -
12/12:00pm 22.8 WSW 7 13 1018.5 - 0.0 - - - - - - -
12/11:30am 22.2 SW 7 10 1018.7 - 0.0 - - - - - - -
12/11:00am 23.3 SSW 8 13 1018.8 - 0.0 - - - - - - -
12/10:30am 22.8 WSW 5 10 1018.7 - 0.0 - - - - - - -
12/10:00am 21.2 SSW 4 7 1018.4 - 0.0 - - - - - - -
12/09:30am 20.1 WNW 4 8 1018.3 - 0.0 - - - - - - -
12/09:00am 19.9 SW 4 8 1018.5 - 0.0 - - - - - - -
12/08:30am 19.6 SW 5 8 1018.4 - 0.0 - - - - - - -
12/08:00am 18.9 WSW 7 13 1018.2 - 0.0 - - - - - - -
12/07:30am 18.9 SW 5 7 1017.8 - 0.0 - - - - - - -
12/07:00am 18.0 CALM 0 4 1017.6 - 0.0 - - - - - - -
12/06:30am 16.6 CALM 0 0 1017.2 - 0.0 - - - - - - -
12/06:00am 16.7 SW 4 5 1016.9 - 0.0 - - - - - - -
12/05:30am 17.0 SW 4 6 1016.6 - 0.0 - - - - - - -
12/05:00am 17.6 SW 3 6 1016.2 - 0.0 - - - - - - -
12/04:30am 17.8 SW 5 8 1015.8 - 0.0 - - - - - - -
12/04:00am 17.7 SW 6 10 1015.5 - 0.0 - - - - - - -
12/03:30am 17.7 SW 4 7 1015.3 - 0.0 - - - - - - -
12/03:00am 17.8 SW 5 11 1015.3 - 0.0 - - - - - - -
12/02:30am 17.6 WSW 4 6 1015.1 - 0.0 - - - - - - -
12/02:00am 17.7 WSW 3 6 1015.1 - 0.0 - - - - - - -
12/01:30am 18.2 WSW 5 7 1015.3 - 0.0 - - - - - - -
12/01:00am 18.4 WSW 3 6 1015.2 - 0.0 - - - - - - -
12/12:30am 18.4 SW 4 6 1015.5 - 0.0 - - - - - - -
12/12:00am 18.3 WSW 3 5 1015.7 - 0.0 - - - - - - -
 
Date/Time
WST
Temp

°C
Wind Pressure Rain
since 9am
mm
Weather Cloud Vis
km
Sea
Height
m
Swell
Dir
 
Speed
knots
Gust
knots
hPa Trend Height
m
Period
s
Dir
11/11:30pm 18.3 SSW 2 5 1015.8 - 0.0 - - - - - - -
11/11:00pm 18.4 CALM 0 0 1015.7 - 0.0 - - - - - - -
11/10:30pm 18.5 CALM 0 0 1015.7 - 0.0 - - - - - - -
11/10:00pm 18.7 CALM 0 0 1015.6 - 0.0 - - - - - - -
11/09:30pm 18.5 SE 2 5 1015.5 - 0.0 - - - - - - -
11/09:00pm 18.3 SE 4 5 1015.4 - 0.0 - - - - - - -
11/08:30pm 18.3 SE 3 5 1015.2 - 0.0 - - - - - - -
11/08:00pm 18.5 SSE 4 7 1015.0 - 0.0 - - - - - - -
11/07:30pm 18.7 SSE 5 8 1014.6 - 0.0 - - - - - - -
11/07:00pm 19.3 SSE 6 10 1014.0 - 0.0 - - - - - - -
11/06:30pm 20.0 SSE 6 11 1013.6 - 0.0 - - - - - - -
11/06:00pm 21.4 SSE 5 10 1013.1 - 0.0 - - - - - - -
11/05:30pm 21.9 SSE 6 10 1012.9 - 0.0 - - - - - - -
11/05:00pm 21.8 SSE 7 15 1012.8 - 0.0 - - - - - - -
11/04:30pm 22.6 SSE 9 15 1012.6 - 0.0 - - - - - - -
11/04:00pm 23.3 S 7 13 1012.4 - 0.0 - - - - - - -
11/03:30pm 24.4 S 5 10 1012.0 - 0.0 - - - - - - -
11/03:00pm 25.0 S 7 12 1012.4 - 0.0 - - - - - - -
11/02:30pm 24.6 S 8 13 1012.8 - 0.0 - - - - - - -
11/02:00pm 24.9 S 7 13 1013.1 - 0.0 - - - - - - -
11/01:30pm 25.8 S 7 13 1013.3 - 0.0 - - - - - - -
11/01:00pm 25.3 E 5 9 1013.3 - 0.0 - - - - - - -
11/12:30pm 25.1 ENE 5 11 1013.7 - 0.0 - - - - - - -
11/12:00pm 24.6 ENE 5 10 1014.1 - 0.0 - - - - - - -
11/11:30am 23.0 ESE 8 11 1014.5 - 0.0 - - - - - - -
11/11:00am 22.1 E 9 13 1014.9 - 0.0 - - - - - - -
11/10:30am 21.7 ESE 8 12 1015.1 - 0.0 - - - - - - -
11/10:00am 21.6 SE 8 12 1015.1 - 0.0 - - - - - - -
11/09:30am 21.1 ESE 9 15 1015.2 - 0.0 - - - - - - -
11/09:00am 20.4 ESE 8 12 1015.4 - 0.0 - - - - - - -
11/08:30am 20.2 ESE 10 15 1015.2 - 0.0 - - - - - - -
11/08:00am 19.9 ESE 10 14 1015.2 - 0.0 - - - - - - -
11/07:30am 19.8 SE 8 12 1015.2 - 0.0 - - - - - - -
11/07:00am 19.3 ESE 7 9 1015.4 - 0.0 - - - - - - -
11/06:30am 18.9 ESE 7 10 1015.1 - 0.0 - - - - - - -
11/06:00am 18.5 ESE 7 10 1014.8 - 0.0 - - - - - - -
11/05:30am 18.6 ESE 7 9 1014.8 - 0.0 - - - - - - -
11/05:00am 18.5 SE 6 7 1014.5 - 0.0 - - - - - - -
11/04:30am 18.6 SE 5 8 1014.5 - 0.0 - - - - - - -
11/04:00am 18.6 SE 5 7 1014.4 - 0.0 - - - - - - -
11/03:30am 18.7 ESE 5 6 1014.6 - 0.0 - - - - - - -
11/03:00am 18.8 ESE 4 6 1014.5 - 0.0 - - - - - - -
11/02:30am 18.8 E 6 9 1014.6 - 0.0 - - - - - - -
11/02:00am 18.9 E 7 11 1014.6 - 0.0 - - - - - - -
11/01:30am 18.9 ESE 6 10 1014.9 - 0.0 - - - - - - -
11/01:00am 19.0 E 6 9 1014.9 - 0.0 - - - - - - -
11/12:30am 19.1 E 9 15 1015.1 - 0.0 - - - - - - -
11/12:00am 19.1 E 10 15 1015.6 - 0.0 - - - - - - -
 
Date/Time
WST
Temp

°C
Wind Pressure Rain
since 9am
mm
Weather Cloud Vis
km
Sea
Height
m
Swell
Dir
 
Speed
knots
Gust
knots
hPa Trend Height
m
Period
s
Dir
10/11:30pm 19.1 E 7 11 1015.6 - 0.0 - - - - - - -
10/11:00pm 19.2 ESE 8 12 1015.8 - 0.0 - - - - - - -
10/10:30pm 19.3 ESE 9 13 1016.1 - 0.0 - - - - - - -
10/10:00pm 19.3 ESE 9 13 1016.4 - 0.0 - - - - - - -
10/09:30pm 19.2 ESE 11 16 1016.7 - 0.0 - - - - - - -
10/09:00pm 19.1 ESE 9 15 1016.5 - 0.0 - - - - - - -
10/08:30pm 19.2 ESE 10 16 1016.4 - 0.0 - - - - - - -
10/08:00pm 19.3 ESE 10 15 1016.1 - 0.0 - - - - - - -
10/07:30pm 19.4 ESE 9 15 1016.0 - 0.0 - - - - - - -
10/07:00pm 19.5 ESE 11 17 1015.7 - 0.0 - - - - - - -
10/06:30pm 19.9 SE 12 19 1015.5 - 0.0 - - - - - - -
10/06:00pm 20.3 ESE 11 17 1015.4 - 0.0 - - - - - - -
10/05:30pm 21.1 ESE 13 18 1015.4 - 0.0 - - - - - - -
10/05:00pm 21.7 SE 12 20 1015.5 - 0.0 - - - - - - -
10/04:30pm 21.9 SE 13 18 1015.6 - 0.0 - - - - - - -
10/04:00pm 23.2 ESE 11 16 1015.5 - 0.0 - - - - - - -
10/03:30pm 23.2 SE 13 18 1015.8 - 0.0 - - - - - - -
10/03:00pm 22.6 ESE 13 18 1016.1 - 0.0 - - - - - - -
10/02:30pm 23.6 SE 13 20 1016.5 - 0.0 - - - - - - -
10/02:00pm 22.5 SE 15 20 1016.7 - 0.0 - - - - - - -
10/01:30pm 22.9 SE 13 20 1016.8 - 0.0 - - - - - - -
10/01:00pm 22.8 ESE 12 16 1017.0 - 0.0 - - - - - - -

Other Formats:

Comma delimited format used in spreadsheet applications
http://www.bom.gov.au/fwo/IDW60701/IDW60701.95647.axf

JavaScript Object Notation format (JSON) in row-major order
http://www.bom.gov.au/fwo/IDW60701/IDW60701.95647.json